createdAt,value
2022-09-26T00:02:19.249Z,99.90
2022-09-26T00:04:45.928Z,99.90
2022-09-26T00:07:12.566Z,99.90
2022-09-26T00:09:39.357Z,99.90
2022-09-26T00:12:07.086Z,99.90
2022-09-26T00:14:34.089Z,99.90
2022-09-26T00:17:00.742Z,99.90
2022-09-26T00:19:27.394Z,99.90
2022-09-26T00:21:54.060Z,99.90
2022-09-26T00:24:20.703Z,99.90
2022-09-26T00:26:47.292Z,99.90
2022-09-26T00:29:14.567Z,99.90
2022-09-26T00:31:43.255Z,99.90
2022-09-26T00:34:11.764Z,99.90
2022-09-26T00:36:39.037Z,99.90
2022-09-26T00:39:07.045Z,99.90
2022-09-26T00:41:33.698Z,99.90
2022-09-26T00:44:00.419Z,99.90
2022-09-26T00:46:27.204Z,99.90
2022-09-26T00:49:03.066Z,99.90
2022-09-26T00:51:29.901Z,99.90
2022-09-26T00:53:56.959Z,99.90
2022-09-26T00:56:26.356Z,99.90
2022-09-26T00:58:57.695Z,99.90
2022-09-26T01:01:24.519Z,99.90
2022-09-26T01:03:51.618Z,99.90
2022-09-26T01:06:18.787Z,99.90
2022-09-26T01:08:49.820Z,99.90
2022-09-26T01:11:17.423Z,99.90
2022-09-26T01:13:44.380Z,99.90
2022-09-26T01:16:11.059Z,99.90
2022-09-26T01:18:37.929Z,99.90
2022-09-26T01:21:07.351Z,99.90
2022-09-26T01:23:52.709Z,99.90
2022-09-26T01:26:33.391Z,99.90
2022-09-26T01:29:02.749Z,99.90
2022-09-26T01:31:41.390Z,99.90
2022-09-26T01:34:24.437Z,99.90
2022-09-26T01:37:00.180Z,99.90
2022-09-26T01:39:53.081Z,99.90
2022-09-26T01:42:45.786Z,99.90
2022-09-26T01:45:19.838Z,99.90
2022-09-26T01:47:59.110Z,99.90
2022-09-26T01:50:45.928Z,99.90
2022-09-26T01:53:16.211Z,99.90
2022-09-26T01:55:46.453Z,99.90
2022-09-26T01:58:23.629Z,99.90
2022-09-26T02:00:51.044Z,99.90
2022-09-26T02:03:20.524Z,99.90
2022-09-26T02:05:52.761Z,99.90
2022-09-26T02:08:24.977Z,99.90
2022-09-26T02:11:02.114Z,99.90
2022-09-26T02:13:31.603Z,99.90
2022-09-26T02:16:05.623Z,99.90
2022-09-26T02:18:35.108Z,99.90
2022-09-26T02:21:03.630Z,99.90
2022-09-26T02:23:30.700Z,99.90
2022-09-26T02:25:57.786Z,99.90
2022-09-26T02:28:24.412Z,99.90
2022-09-26T02:30:52.387Z,99.90
2022-09-26T02:33:19.088Z,99.90
2022-09-26T02:35:54.875Z,99.90
2022-09-26T02:38:23.138Z,99.90
2022-09-26T02:40:57.148Z,99.90
2022-09-26T02:43:29.136Z,99.90
2022-09-26T02:46:16.019Z,99.90
2022-09-26T02:48:42.607Z,99.90
2022-09-26T02:51:22.975Z,99.90
2022-09-26T02:53:49.529Z,99.90
2022-09-26T02:56:16.978Z,99.90
2022-09-26T02:58:44.523Z,99.90
2022-09-26T03:01:21.731Z,99.90
2022-09-26T03:04:00.799Z,99.90
2022-09-26T03:06:30.294Z,99.90
2022-09-26T03:08:57.039Z,99.90
2022-09-26T03:11:24.697Z,99.90
2022-09-26T03:13:53.024Z,99.90
2022-09-26T03:16:20.856Z,99.90
2022-09-26T03:18:47.493Z,99.90
2022-09-26T03:21:14.918Z,99.90
2022-09-26T03:23:41.735Z,99.90
2022-09-26T03:26:10.177Z,99.90
2022-09-26T03:28:38.089Z,99.90
2022-09-26T03:31:04.949Z,99.90
2022-09-26T03:33:31.592Z,99.90
2022-09-26T03:36:00.109Z,99.90
2022-09-26T03:38:27.380Z,99.90
2022-09-26T03:40:54.138Z,99.90
2022-09-26T03:43:24.285Z,99.90
2022-09-26T03:45:51.318Z,99.90
2022-09-26T03:48:18.061Z,99.90
2022-09-26T03:50:44.626Z,99.90
2022-09-26T03:53:11.223Z,99.90
2022-09-26T03:55:37.863Z,99.90
2022-09-26T03:58:04.451Z,99.90
2022-09-26T04:00:31.389Z,99.90
2022-09-26T04:03:01.866Z,99.90
2022-09-26T04:05:29.495Z,99.90
2022-09-26T04:07:56.282Z,99.90
2022-09-26T04:10:24.200Z,99.90
2022-09-26T04:12:50.779Z,99.90
2022-09-26T04:15:17.532Z,99.90
2022-09-26T04:17:44.128Z,99.90
2022-09-26T04:20:10.826Z,99.90
2022-09-26T04:22:37.412Z,99.90
2022-09-26T04:25:04.157Z,99.90
2022-09-26T04:27:30.805Z,99.90
2022-09-26T04:29:57.381Z,99.90
2022-09-26T04:32:24.827Z,99.90
2022-09-26T04:34:51.473Z,99.90
2022-09-26T04:37:21.084Z,99.90
2022-09-26T04:39:48.357Z,99.90
2022-09-26T04:42:14.987Z,99.90
2022-09-26T04:44:41.721Z,99.90
2022-09-26T04:47:08.590Z,99.90
2022-09-26T04:49:35.256Z,99.90
2022-09-26T04:52:01.853Z,99.90
2022-09-26T04:54:28.515Z,99.90
2022-09-26T04:56:55.287Z,99.90
2022-09-26T04:59:21.946Z,99.90
2022-09-26T05:01:48.623Z,99.90
2022-09-26T05:04:15.311Z,99.90
2022-09-26T05:06:42.208Z,99.90
2022-09-26T05:09:08.899Z,99.90
2022-09-26T05:11:35.554Z,99.90
2022-09-26T05:14:03.481Z,99.90
2022-09-26T05:16:30.395Z,99.90
2022-09-26T05:18:57.046Z,99.90
2022-09-26T05:21:23.736Z,99.90
2022-09-26T05:24:09.168Z,99.90
2022-09-26T05:26:41.524Z,99.90
2022-09-26T05:29:09.477Z,99.90
2022-09-26T05:31:37.485Z,99.90
2022-09-26T05:34:08.683Z,99.90
2022-09-26T05:36:35.297Z,99.90
2022-09-26T05:39:02.354Z,99.90
2022-09-26T05:41:32.651Z,99.90
2022-09-26T05:43:59.678Z,99.90
2022-09-26T05:46:28.366Z,99.90
2022-09-26T05:48:55.546Z,99.90
2022-09-26T05:51:22.205Z,99.90
2022-09-26T05:53:49.573Z,99.90
2022-09-26T05:56:18.960Z,99.90
2022-09-26T05:58:46.160Z,99.90
2022-09-26T06:01:14.375Z,99.90
2022-09-26T06:03:45.034Z,99.90
2022-09-26T06:06:12.800Z,99.90
2022-09-26T06:08:39.984Z,99.90
2022-09-26T06:11:09.472Z,99.90
2022-09-26T06:13:36.802Z,99.90
2022-09-26T06:16:07.244Z,99.90
2022-09-26T06:18:37.850Z,99.90
2022-09-26T06:21:05.072Z,99.90
2022-09-26T06:23:32.125Z,99.90
2022-09-26T06:25:59.153Z,99.90
2022-09-26T06:28:29.177Z,99.90
2022-09-26T06:30:56.066Z,99.90
2022-09-26T06:33:23.166Z,99.90
2022-09-26T06:36:02.678Z,99.90
2022-09-26T06:38:29.490Z,99.90
2022-09-26T06:40:56.548Z,99.90
2022-09-26T06:43:23.418Z,99.90
2022-09-26T06:45:50.081Z,99.90
2022-09-26T06:48:19.923Z,99.90
2022-09-26T06:50:52.872Z,99.90
2022-09-26T06:53:19.654Z,99.90
2022-09-26T06:55:46.328Z,99.90
2022-09-26T06:58:13.203Z,99.90
2022-09-26T07:00:40.428Z,99.90
2022-09-26T07:03:08.253Z,99.90
2022-09-26T07:05:35.076Z,99.90
2022-09-26T07:08:02.533Z,99.90
2022-09-26T07:10:30.410Z,99.90
2022-09-26T07:13:06.629Z,99.90
2022-09-26T07:15:34.095Z,99.90
2022-09-26T07:18:04.775Z,99.90
2022-09-26T07:20:33.153Z,99.90
2022-09-26T07:23:03.398Z,99.90
2022-09-26T07:25:33.677Z,99.90
2022-09-26T07:28:00.766Z,99.90
2022-09-26T07:30:28.203Z,99.90
2022-09-26T07:33:04.995Z,99.90
2022-09-26T07:35:32.631Z,99.90
2022-09-26T07:37:59.644Z,99.90
2022-09-26T07:40:26.763Z,99.90
2022-09-26T07:43:09.524Z,99.90
2022-09-26T07:45:58.949Z,99.90
2022-09-26T07:48:44.274Z,99.90
2022-09-26T07:51:11.760Z,99.90
2022-09-26T07:53:41.322Z,99.90
2022-09-26T07:56:11.304Z,99.90
2022-09-26T07:58:39.657Z,99.90
2022-09-26T08:01:07.431Z,99.90
2022-09-26T08:03:34.452Z,99.90
2022-09-26T08:06:01.724Z,99.90
2022-09-26T08:08:29.434Z,99.90
2022-09-26T08:11:02.817Z,99.90
2022-09-26T08:13:31.733Z,99.90
2022-09-26T08:16:05.597Z,99.90
2022-09-26T08:18:33.060Z,99.90
2022-09-26T08:20:59.820Z,99.90
2022-09-26T08:23:26.459Z,99.90
2022-09-26T08:25:53.093Z,99.90
2022-09-26T08:28:19.776Z,99.90
2022-09-26T08:30:46.605Z,99.90
2022-09-26T08:33:13.321Z,99.90
2022-09-26T08:35:40.027Z,99.90
2022-09-26T08:38:07.285Z,99.90
2022-09-26T08:40:49.668Z,99.90
2022-09-26T08:43:31.647Z,99.90
2022-09-26T08:46:10.375Z,99.90
2022-09-26T08:48:37.035Z,99.90
2022-09-26T08:51:12.046Z,99.90
2022-09-26T08:53:50.458Z,99.90
2022-09-26T08:56:22.800Z,99.90
2022-09-26T08:58:52.366Z,99.90
2022-09-26T09:01:25.070Z,98.70
2022-09-26T09:03:53.010Z,94.20
2022-09-26T09:06:19.786Z,92.60
2022-09-26T09:08:50.979Z,84.40
2022-09-26T09:11:26.773Z,79.10
2022-09-26T09:13:53.572Z,78.40
2022-09-26T09:16:29.291Z,75.00
2022-09-26T09:19:08.494Z,73.90
2022-09-26T09:21:53.723Z,68.80
2022-09-26T09:24:32.863Z,71.40
2022-09-26T09:29:49.308Z,70.70
2022-09-26T09:32:18.888Z,67.40
2022-09-26T09:34:52.941Z,65.30
2022-09-26T09:37:25.293Z,63.80
2022-09-26T09:39:52.685Z,64.00
2022-09-26T09:42:22.931Z,65.20
2022-09-26T09:44:55.420Z,66.20
2022-09-26T09:47:22.157Z,64.40
2022-09-26T09:49:49.267Z,67.20
2022-09-26T09:52:35.783Z,65.00
2022-09-26T09:55:09.755Z,67.60
2022-09-26T09:57:39.357Z,68.60
2022-09-26T10:00:08.977Z,69.70
2022-09-26T10:02:40.130Z,71.30
2022-09-26T10:05:33.621Z,73.40
2022-09-26T10:08:00.908Z,73.70
2022-09-26T10:10:31.892Z,76.20
2022-09-26T10:12:58.633Z,75.30
2022-09-26T10:15:27.978Z,74.20
2022-09-26T10:18:23.400Z,75.60
2022-09-26T10:20:48.217Z,78.20
2022-09-26T10:23:18.894Z,76.80
2022-09-26T10:25:47.208Z,76.20
2022-09-26T10:28:24.613Z,75.50
2022-09-26T10:30:52.378Z,75.50
2022-09-26T10:33:27.039Z,73.10
2022-09-26T10:35:59.386Z,72.40
2022-09-26T10:38:29.669Z,74.80
2022-09-26T10:41:01.309Z,74.40
2022-09-26T10:43:31.053Z,73.30
2022-09-26T10:46:09.392Z,74.70
2022-09-26T10:48:38.832Z,76.70
2022-09-26T10:51:07.146Z,77.60
2022-09-26T10:53:38.540Z,76.40
2022-09-26T10:56:07.085Z,75.50
2022-09-26T10:58:38.914Z,74.90
2022-09-26T11:01:08.323Z,73.30
2022-09-26T11:03:40.272Z,72.30
2022-09-26T11:06:23.852Z,74.70
2022-09-26T11:08:52.117Z,73.40
2022-09-26T11:11:21.278Z,75.00
2022-09-26T11:14:08.495Z,72.10
2022-09-26T11:16:49.373Z,73.40
2022-09-26T11:19:33.127Z,71.20
2022-09-26T11:22:08.756Z,71.50
2022-09-26T11:24:54.861Z,73.50
2022-09-26T11:27:21.423Z,73.00
2022-09-26T11:30:09.366Z,73.40
2022-09-26T11:32:43.092Z,74.10
2022-09-26T11:35:14.240Z,76.10
2022-09-26T11:37:50.765Z,77.70
2022-09-26T11:40:32.420Z,79.70
2022-09-26T11:43:02.110Z,83.00
2022-09-26T11:45:40.816Z,81.80
2022-09-26T11:48:20.039Z,79.70
2022-09-26T11:51:10.372Z,78.40
2022-09-26T11:53:55.866Z,78.30
2022-09-26T11:56:35.247Z,80.50
2022-09-26T11:59:13.861Z,81.30
2022-09-26T12:01:59.029Z,79.80
2022-09-26T12:04:37.686Z,81.00
2022-09-26T12:07:17.528Z,83.20
2022-09-26T12:09:58.539Z,82.00
2022-09-26T12:12:40.567Z,81.90
2022-09-26T12:15:08.519Z,86.00
2022-09-26T12:17:48.883Z,90.10
2022-09-26T12:20:34.085Z,88.20
2022-09-26T12:23:20.259Z,83.20
2022-09-26T12:25:56.039Z,81.90
2022-09-26T12:28:27.833Z,79.10
2022-09-26T12:31:09.669Z,81.40
2022-09-26T12:33:51.970Z,82.20
2022-09-26T12:36:40.491Z,81.10
2022-09-26T12:39:13.304Z,82.20
2022-09-26T12:41:39.875Z,82.40
2022-09-26T12:44:07.690Z,80.40
2022-09-26T12:46:37.390Z,78.80
2022-09-26T12:49:10.306Z,81.20
2022-09-26T12:51:42.649Z,81.20
2022-09-26T12:54:18.208Z,81.00
2022-09-26T12:56:56.230Z,83.80
2022-09-26T12:59:41.660Z,82.70
2022-09-26T13:02:08.392Z,80.10
2022-09-26T13:04:53.711Z,82.80
2022-09-26T13:07:47.121Z,82.20
2022-09-26T13:10:29.295Z,82.90
2022-09-26T13:12:55.880Z,79.40
2022-09-26T13:15:35.400Z,78.40
2022-09-26T13:18:26.181Z,78.50
2022-09-26T13:20:59.053Z,78.50
2022-09-26T13:23:30.363Z,80.00
2022-09-26T13:25:59.730Z,80.60
2022-09-26T13:28:34.799Z,80.70
2022-09-26T13:31:04.423Z,81.40
2022-09-26T13:33:39.821Z,78.60
2022-09-26T13:36:09.738Z,79.10
2022-09-26T13:38:39.200Z,80.20
2022-09-26T13:41:25.269Z,84.00
2022-09-26T13:43:53.503Z,85.80
2022-09-26T13:46:23.548Z,86.70
2022-09-26T13:49:00.932Z,87.90
2022-09-26T13:51:39.360Z,89.30
2022-09-26T13:54:18.830Z,89.60
2022-09-26T13:56:48.510Z,87.80
2022-09-26T13:59:15.666Z,87.40
2022-09-26T14:02:00.935Z,89.40
2022-09-26T14:04:37.127Z,89.10
2022-09-26T14:07:28.563Z,89.90
2022-09-26T14:10:01.531Z,90.50
2022-09-26T14:12:46.986Z,89.40
2022-09-26T14:15:24.411Z,89.10
2022-09-26T14:17:51.069Z,89.50
2022-09-26T14:20:28.105Z,89.20
2022-09-26T14:22:56.119Z,88.60
2022-09-26T14:25:41.391Z,87.40
2022-09-26T14:28:32.671Z,87.40
2022-09-26T14:31:17.939Z,87.70
2022-09-26T14:33:45.493Z,90.70
2022-09-26T14:36:18.323Z,90.30
2022-09-26T14:38:48.923Z,90.70
2022-09-26T14:41:19.231Z,90.00
2022-09-26T14:43:47.503Z,90.70
2022-09-26T14:46:17.394Z,90.90
2022-09-26T14:48:44.454Z,90.70
2022-09-26T14:51:11.132Z,91.50
2022-09-26T14:53:50.011Z,91.30
2022-09-26T14:56:27.189Z,91.40
2022-09-26T14:58:54.240Z,92.00
2022-09-26T15:01:24.160Z,91.90
2022-09-26T15:04:11.035Z,92.10
2022-09-26T15:06:39.441Z,91.70
2022-09-26T15:09:10.403Z,92.10
2022-09-26T15:11:48.367Z,92.20
2022-09-26T15:14:17.812Z,92.80
2022-09-26T15:16:47.839Z,92.70
2022-09-26T15:19:16.061Z,93.20
2022-09-26T15:21:44.034Z,93.30
2022-09-26T15:24:22.852Z,93.50
2022-09-26T15:26:49.944Z,93.40
2022-09-26T15:29:17.423Z,93.80
2022-09-26T15:31:44.962Z,94.50
2022-09-26T15:34:11.880Z,94.60
2022-09-26T15:36:39.746Z,93.90
2022-09-26T15:39:25.886Z,93.90
2022-09-26T15:42:11.153Z,93.90
2022-09-26T15:44:45.838Z,94.90
2022-09-26T15:47:24.370Z,95.10
2022-09-26T15:50:02.394Z,95.10
2022-09-26T15:52:30.194Z,95.60
2022-09-26T15:54:56.886Z,96.00
2022-09-26T15:57:23.563Z,95.80
2022-09-26T15:59:51.166Z,96.40
2022-09-26T16:02:28.333Z,96.60
2022-09-26T16:04:55.879Z,97.00
2022-09-26T16:07:27.855Z,97.00
2022-09-26T16:09:56.111Z,97.10
2022-09-26T16:12:23.756Z,97.00
2022-09-26T16:15:13.501Z,96.40
2022-09-26T16:17:49.179Z,96.70
2022-09-26T16:20:16.161Z,96.10
2022-09-26T16:22:45.719Z,96.80
2022-09-26T16:25:15.743Z,96.80
2022-09-26T16:27:42.663Z,96.90
2022-09-26T16:30:27.697Z,97.00
2022-09-26T16:33:17.254Z,96.90
2022-09-26T16:35:45.531Z,96.80
2022-09-26T16:38:31.211Z,96.40
2022-09-26T16:41:05.640Z,97.00
2022-09-26T16:43:32.816Z,97.20
2022-09-26T16:46:00.922Z,97.40
2022-09-26T16:48:41.431Z,97.50
2022-09-26T16:51:15.768Z,96.90
2022-09-26T16:53:44.354Z,97.60
2022-09-26T16:56:15.871Z,97.70
2022-09-26T16:58:45.467Z,97.70
2022-09-26T17:01:31.249Z,98.40
2022-09-26T17:03:58.505Z,99.00
2022-09-26T17:06:25.320Z,99.00
2022-09-26T17:08:52.534Z,99.10
2022-09-26T17:11:19.872Z,99.90
2022-09-26T17:13:49.041Z,99.90
2022-09-26T17:16:16.214Z,99.90
2022-09-26T17:18:44.386Z,99.90
2022-09-26T17:21:12.160Z,99.90
2022-09-26T17:23:41.140Z,99.90
2022-09-26T17:26:12.234Z,99.90
2022-09-26T17:28:40.142Z,99.90
2022-09-26T17:31:08.065Z,99.90
2022-09-26T17:33:40.543Z,99.90
2022-09-26T17:36:10.843Z,99.90
2022-09-26T17:38:40.307Z,99.90
2022-09-26T17:41:07.040Z,99.90
2022-09-26T17:43:34.049Z,99.90
2022-09-26T17:46:01.041Z,99.90
2022-09-26T17:48:28.662Z,99.90
2022-09-26T17:50:56.241Z,99.90
2022-09-26T17:53:24.716Z,99.90
2022-09-26T17:55:53.048Z,99.90
2022-09-26T17:58:20.248Z,99.90
2022-09-26T18:00:49.344Z,99.90
2022-09-26T18:03:30.016Z,99.90
2022-09-26T18:05:56.746Z,99.90
2022-09-26T18:08:30.538Z,99.90
2022-09-26T18:11:01.400Z,99.90
2022-09-26T18:13:31.358Z,99.90
2022-09-26T18:15:58.878Z,99.90
2022-09-26T18:18:30.605Z,99.90
2022-09-26T18:20:58.826Z,99.90
2022-09-26T18:23:30.049Z,99.90
2022-09-26T18:25:59.089Z,99.90
2022-09-26T18:28:25.915Z,99.90
2022-09-26T18:30:58.139Z,99.90
2022-09-26T18:33:27.864Z,99.90
2022-09-26T18:35:55.197Z,99.90
2022-09-26T18:38:22.265Z,99.90
2022-09-26T18:40:51.788Z,99.90
2022-09-26T18:43:20.463Z,99.90
2022-09-26T18:45:47.482Z,99.90
2022-09-26T18:48:19.768Z,99.90
2022-09-26T18:50:47.325Z,99.90
2022-09-26T18:53:15.478Z,99.90
2022-09-26T18:56:00.899Z,99.90
2022-09-26T18:58:28.277Z,99.90
2022-09-26T19:00:59.852Z,99.90
2022-09-26T19:03:30.534Z,99.90
2022-09-26T19:06:23.436Z,99.90
2022-09-26T19:08:51.480Z,99.90
2022-09-26T19:11:22.635Z,99.90
2022-09-26T19:13:49.984Z,99.90
2022-09-26T19:16:17.062Z,99.90
2022-09-26T19:18:44.156Z,99.90
2022-09-26T19:21:17.718Z,99.90
2022-09-26T19:23:44.722Z,99.90
2022-09-26T19:26:17.007Z,99.90
2022-09-26T19:28:43.700Z,99.90
2022-09-26T19:31:10.661Z,99.90
2022-09-26T19:33:39.485Z,99.90
2022-09-26T19:36:06.181Z,99.90
2022-09-26T19:38:32.820Z,99.90
2022-09-26T19:40:59.985Z,99.90
2022-09-26T19:43:26.657Z,99.90
2022-09-26T19:45:54.322Z,99.90
2022-09-26T19:48:22.072Z,99.90
2022-09-26T19:50:49.414Z,99.90
2022-09-26T19:53:17.091Z,99.90
2022-09-26T19:55:44.014Z,99.90
2022-09-26T19:58:18.191Z,99.90
2022-09-26T20:00:47.339Z,99.90
2022-09-26T20:03:17.843Z,99.90
2022-09-26T20:05:49.344Z,99.90
2022-09-26T20:08:17.396Z,99.90
2022-09-26T20:10:44.668Z,99.90
2022-09-26T20:13:11.353Z,99.90
2022-09-26T20:15:38.218Z,99.90
2022-09-26T20:18:06.126Z,99.90
2022-09-26T20:20:34.819Z,99.90
2022-09-26T20:23:02.121Z,99.90
2022-09-26T20:25:29.922Z,99.90
2022-09-26T20:27:57.060Z,99.90
2022-09-26T20:30:56.844Z,99.90
2022-09-26T20:33:24.584Z,99.90
2022-09-26T20:35:53.923Z,99.90
2022-09-26T20:38:30.425Z,99.90
2022-09-26T20:41:12.040Z,99.90
2022-09-26T20:43:39.707Z,99.90
2022-09-26T20:46:07.720Z,99.90
2022-09-26T20:48:35.134Z,99.90
2022-09-26T20:51:02.769Z,99.90
2022-09-26T20:53:29.475Z,99.90
2022-09-26T20:55:56.209Z,99.90
2022-09-26T20:58:22.913Z,99.90
2022-09-26T21:00:49.922Z,99.90
2022-09-26T21:03:18.773Z,99.90
2022-09-26T21:05:45.647Z,99.90
2022-09-26T21:08:30.737Z,99.90
2022-09-26T21:10:57.847Z,99.90
2022-09-26T21:13:24.560Z,99.90
2022-09-26T21:15:52.374Z,99.90
2022-09-26T21:18:27.038Z,99.90
2022-09-26T21:20:54.057Z,99.90
2022-09-26T21:23:21.093Z,99.90
2022-09-26T21:25:48.719Z,99.90
2022-09-26T21:28:28.102Z,99.90
2022-09-26T21:30:56.710Z,99.90
2022-09-26T21:33:23.656Z,99.90
2022-09-26T21:35:50.624Z,99.90
2022-09-26T21:38:18.115Z,99.90
2022-09-26T21:40:45.431Z,99.90
2022-09-26T21:43:15.657Z,99.90
2022-09-26T21:45:44.004Z,99.90
2022-09-26T21:48:11.631Z,99.90
2022-09-26T21:50:39.893Z,99.90
2022-09-26T21:53:10.558Z,99.90
2022-09-26T21:55:38.750Z,99.90
2022-09-26T21:58:07.339Z,99.90
2022-09-26T22:00:33.972Z,99.90
2022-09-26T22:03:01.242Z,99.90
2022-09-26T22:05:27.884Z,99.90
2022-09-26T22:07:54.614Z,99.90
2022-09-26T22:10:21.272Z,99.90
2022-09-26T22:12:48.085Z,99.90
2022-09-26T22:15:14.750Z,99.90
2022-09-26T22:17:41.391Z,99.90
2022-09-26T22:20:08.293Z,99.90
2022-09-26T22:22:35.063Z,99.90
2022-09-26T22:25:04.139Z,99.90
2022-09-26T22:27:31.701Z,99.90
2022-09-26T22:29:58.323Z,99.90
2022-09-26T22:32:25.031Z,99.90
2022-09-26T22:34:51.888Z,99.90
2022-09-26T22:37:18.483Z,99.90
2022-09-26T22:39:45.227Z,99.90
2022-09-26T22:42:11.988Z,99.90
2022-09-26T22:44:38.643Z,99.90
2022-09-26T22:47:05.265Z,99.90
2022-09-26T22:49:32.487Z,99.90
2022-09-26T22:51:59.162Z,99.90
2022-09-26T22:54:26.052Z,99.90
2022-09-26T22:56:52.743Z,99.90
2022-09-26T22:59:19.398Z,99.90
2022-09-26T23:01:46.076Z,99.90
2022-09-26T23:04:12.748Z,99.90
2022-09-26T23:06:39.391Z,99.90
2022-09-26T23:09:06.022Z,99.90
2022-09-26T23:11:32.754Z,99.90
2022-09-26T23:13:59.434Z,99.90
2022-09-26T23:16:28.495Z,99.90
2022-09-26T23:18:55.672Z,99.90
2022-09-26T23:21:23.478Z,99.90
2022-09-26T23:23:58.322Z,99.90
2022-09-26T23:26:26.314Z,99.90
2022-09-26T23:28:54.162Z,99.90
2022-09-26T23:31:21.562Z,99.90
2022-09-26T23:33:48.239Z,99.90
2022-09-26T23:36:14.983Z,99.90
2022-09-26T23:38:42.121Z,99.90
2022-09-26T23:41:09.951Z,99.90
2022-09-26T23:43:36.578Z,99.90
2022-09-26T23:46:03.397Z,99.90
2022-09-26T23:48:30.176Z,99.90
2022-09-26T23:50:57.652Z,99.90
2022-09-26T23:53:24.506Z,99.90
2022-09-26T23:55:51.263Z,99.90
2022-09-26T23:58:17.971Z,99.90
